createdAt,value
2017-04-29T00:00:04.684Z,21.3
2017-04-29T00:02:08.261Z,21.3
2017-04-29T00:04:10.081Z,21.3
2017-04-29T00:06:04.806Z,21.3
2017-04-29T00:08:05.835Z,21.3
2017-04-29T00:10:10.568Z,21.3
2017-04-29T00:12:04.925Z,21.4
2017-04-29T00:14:04.968Z,21.4
2017-04-29T00:16:05.234Z,21.4
2017-04-29T00:18:05.186Z,21.4
2017-04-29T00:20:07.665Z,21.4
2017-04-29T00:22:05.370Z,21.3
2017-04-29T00:24:05.744Z,21.4
2017-04-29T00:26:05.776Z,21.4
2017-04-29T00:28:10.546Z,21.4
2017-04-29T00:30:10.305Z,21.4
2017-04-29T00:32:05.345Z,21.4
2017-04-29T00:34:05.011Z,21.4
2017-04-29T00:36:04.709Z,21.4
2017-04-29T00:38:05.538Z,21.4
2017-04-29T00:40:05.366Z,21.4
2017-04-29T00:42:15.218Z,21.4
2017-04-29T00:44:05.192Z,21.4
2017-04-29T00:46:05.437Z,21.4
2017-04-29T00:48:05.149Z,21.5
2017-04-29T00:50:08.065Z,21.5
2017-04-29T00:52:04.853Z,21.5
2017-04-29T00:54:05.605Z,21.5
2017-04-29T00:56:05.605Z,21.5
2017-04-29T00:58:05.356Z,21.5
2017-04-29T01:00:05.050Z,21.5
2017-04-29T01:02:09.927Z,21.5
2017-04-29T01:04:04.714Z,21.5
2017-04-29T01:06:04.980Z,21.5
2017-04-29T01:08:07.496Z,21.5
2017-04-29T01:10:07.692Z,21.5
2017-04-29T01:12:05.741Z,21.5
2017-04-29T01:14:10.834Z,21.5
2017-04-29T01:16:05.525Z,21.5
2017-04-29T01:18:05.438Z,21.5
2017-04-29T01:20:05.493Z,21.5
2017-04-29T01:22:04.712Z,21.5
2017-04-29T01:24:07.938Z,21.5
2017-04-29T01:26:04.779Z,21.5
2017-04-29T01:28:05.645Z,21.5
2017-04-29T01:30:05.356Z,21.5
2017-04-29T01:32:16.054Z,21.6
2017-04-29T01:34:04.743Z,21.5
2017-04-29T01:36:05.440Z,21.6
2017-04-29T01:38:04.931Z,21.6
2017-04-29T01:40:17.244Z,21.6
2017-04-29T01:42:04.967Z,21.6
2017-04-29T01:44:04.985Z,21.6
2017-04-29T01:46:04.667Z,21.6
2017-04-29T01:48:05.405Z,21.6
2017-04-29T01:50:05.277Z,21.6
2017-04-29T01:52:04.963Z,21.6
2017-04-29T01:54:04.630Z,21.6
2017-04-29T01:56:05.004Z,21.6
2017-04-29T01:58:04.757Z,21.6
2017-04-29T02:00:05.335Z,21.6
2017-04-29T02:02:05.313Z,21.6
2017-04-29T02:04:05.521Z,21.6
2017-04-29T02:06:05.295Z,21.6
2017-04-29T02:08:05.406Z,21.6
2017-04-29T02:10:10.137Z,21.6
2017-04-29T02:12:07.366Z,21.6
2017-04-29T02:14:05.361Z,21.6
2017-04-29T02:16:05.357Z,21.6
2017-04-29T02:18:05.316Z,21.6
2017-04-29T02:20:05.278Z,21.6
2017-04-29T02:22:05.038Z,21.6
2017-04-29T02:24:07.260Z,21.7
2017-04-29T02:26:05.150Z,21.6
2017-04-29T02:28:04.861Z,21.6
2017-04-29T02:30:05.561Z,21.6
2017-04-29T02:32:04.961Z,21.6
2017-04-29T02:34:09.755Z,21.7
2017-04-29T02:36:05.445Z,21.6
2017-04-29T02:38:05.426Z,21.7
2017-04-29T02:40:05.108Z,21.7
2017-04-29T02:42:04.811Z,21.7
2017-04-29T02:44:05.785Z,21.7
2017-04-29T02:46:05.462Z,21.7
2017-04-29T02:48:05.323Z,21.7
2017-04-29T02:50:05.377Z,21.7
2017-04-29T02:52:05.640Z,21.7
2017-04-29T02:54:07.970Z,21.7
2017-04-29T02:56:05.016Z,21.7
2017-04-29T02:58:04.738Z,21.7
2017-04-29T03:00:05.524Z,21.7
2017-04-29T03:02:08.080Z,21.7
2017-04-29T03:04:05.005Z,21.7
2017-04-29T03:06:07.236Z,21.7
2017-04-29T03:08:05.074Z,21.7
2017-04-29T03:10:04.758Z,21.7
2017-04-29T03:12:05.471Z,21.7
2017-04-29T03:14:05.424Z,21.7
2017-04-29T03:16:05.210Z,21.7
2017-04-29T03:18:07.639Z,21.7
2017-04-29T03:20:05.518Z,21.7
2017-04-29T03:22:05.316Z,21.7
2017-04-29T03:24:05.657Z,21.7
2017-04-29T03:26:06.511Z,21.7
2017-04-29T03:28:05.158Z,21.7
2017-04-29T03:30:07.482Z,21.7
2017-04-29T03:32:05.522Z,21.7
2017-04-29T03:34:05.191Z,21.7
2017-04-29T03:36:05.157Z,21.7
2017-04-29T03:38:04.998Z,21.7
2017-04-29T03:40:04.823Z,21.7
2017-04-29T03:42:05.549Z,21.7
2017-04-29T03:44:05.660Z,21.7
2017-04-29T03:46:10.483Z,21.7
2017-04-29T03:48:07.720Z,21.7
2017-04-29T03:50:05.707Z,21.7
2017-04-29T03:52:05.553Z,21.7
2017-04-29T03:54:05.263Z,21.7
2017-04-29T03:56:05.360Z,21.7
2017-04-29T03:58:05.637Z,21.7
2017-04-29T04:00:13.050Z,21.7
2017-04-29T04:02:08.322Z,21.7
2017-04-29T04:04:05.559Z,21.7
2017-04-29T04:06:07.349Z,21.8
2017-04-29T04:08:04.922Z,21.7
2017-04-29T04:10:04.635Z,21.7
2017-04-29T04:12:04.926Z,21.8
2017-04-29T04:14:05.032Z,21.7
2017-04-29T04:16:07.295Z,21.7
2017-04-29T04:18:05.204Z,21.7
2017-04-29T04:20:05.559Z,21.8
2017-04-29T04:22:05.270Z,21.8
2017-04-29T04:24:07.721Z,21.8
2017-04-29T04:26:05.771Z,21.7
2017-04-29T04:28:05.566Z,21.8
2017-04-29T04:30:05.257Z,21.8
2017-04-29T04:32:07.952Z,21.8
2017-04-29T04:34:11.254Z,21.8
2017-04-29T04:36:04.741Z,21.8
2017-04-29T04:38:08.234Z,21.8
2017-04-29T04:40:05.236Z,21.8
2017-04-29T04:42:04.959Z,21.8
2017-04-29T04:44:04.974Z,21.8
2017-04-29T04:46:07.194Z,21.9
2017-04-29T04:48:07.396Z,21.9
2017-04-29T04:50:05.453Z,21.9
2017-04-29T04:52:05.255Z,21.9
2017-04-29T04:54:12.545Z,22
2017-04-29T04:56:05.551Z,21.9
2017-04-29T04:58:04.813Z,22
2017-04-29T05:00:05.510Z,22
2017-04-29T05:02:08.007Z,22
2017-04-29T05:04:10.293Z,22.1
2017-04-29T05:06:05.590Z,22.1
2017-04-29T05:08:05.680Z,22.1
2017-04-29T05:10:05.339Z,22.2
2017-04-29T05:12:05.327Z,22.2
2017-04-29T05:14:05.419Z,22.2
2017-04-29T05:16:07.181Z,22.2
2017-04-29T05:18:07.644Z,22.3
2017-04-29T05:20:05.530Z,22.3
2017-04-29T05:22:05.239Z,22.3
2017-04-29T05:24:07.599Z,22.3
2017-04-29T05:26:08.136Z,22.3
2017-04-29T05:28:05.752Z,22.4
2017-04-29T05:30:05.469Z,22.4
2017-04-29T05:32:15.099Z,22.4
2017-04-29T05:34:04.778Z,22.4
2017-04-29T05:36:05.536Z,22.4
2017-04-29T05:38:05.406Z,22.5
2017-04-29T05:40:05.148Z,22.5
2017-04-29T05:42:04.912Z,22.5
2017-04-29T05:44:05.798Z,22.5
2017-04-29T05:46:05.456Z,22.5
2017-04-29T05:48:05.108Z,22.6
2017-04-29T05:50:05.001Z,22.6
2017-04-29T05:52:04.726Z,22.6
2017-04-29T05:54:05.447Z,22.6
2017-04-29T05:56:07.886Z,22.7
2017-04-29T05:58:05.582Z,22.7
2017-04-29T06:00:05.604Z,22.7
2017-04-29T06:02:05.419Z,22.7
2017-04-29T06:04:07.207Z,22.8
2017-04-29T06:06:04.884Z,22.7
2017-04-29T06:08:05.922Z,22.8
2017-04-29T06:10:05.596Z,22.8
2017-04-29T06:12:04.827Z,22.8
2017-04-29T06:14:05.802Z,22.8
2017-04-29T06:16:05.650Z,22.9
2017-04-29T06:18:13.379Z,22.8
2017-04-29T06:20:08.098Z,22.8
2017-04-29T06:22:08.852Z,22.7
2017-04-29T06:24:05.538Z,22.7
2017-04-29T06:26:05.545Z,22.6
2017-04-29T06:28:05.307Z,22.5
2017-04-29T06:30:05.050Z,22.3
2017-04-29T06:32:10.007Z,22.1
2017-04-29T06:34:05.294Z,22.1
2017-04-29T06:36:05.024Z,22
2017-04-29T06:38:04.867Z,22
2017-04-29T06:40:05.213Z,22
2017-04-29T06:42:09.968Z,22.1
2017-04-29T06:44:04.796Z,22.1
2017-04-29T06:46:08.051Z,22.2
2017-04-29T06:48:04.867Z,22.2
2017-04-29T06:50:08.453Z,22.2
2017-04-29T06:52:05.250Z,22.2
2017-04-29T06:54:05.288Z,22.2
2017-04-29T06:56:05.382Z,22.2
2017-04-29T06:58:05.422Z,22.2
2017-04-29T07:00:15.229Z,22.1
2017-04-29T07:02:05.775Z,22.1
2017-04-29T07:04:05.628Z,22.2
2017-04-29T07:06:10.462Z,22.1
2017-04-29T07:08:04.972Z,22.1
2017-04-29T07:10:07.189Z,22.2
2017-04-29T07:12:04.854Z,22.3
2017-04-29T07:14:05.490Z,22.4
2017-04-29T07:16:07.724Z,22.5
2017-04-29T07:18:05.625Z,22.5
2017-04-29T07:20:08.106Z,22.5
2017-04-29T07:22:04.802Z,22.5
2017-04-29T07:24:05.594Z,22.6
2017-04-29T07:26:05.637Z,22.5
2017-04-29T07:28:05.360Z,22.5
2017-04-29T07:30:07.240Z,22.3
2017-04-29T07:32:05.280Z,22.3
2017-04-29T07:34:04.959Z,22.3
2017-04-29T07:36:04.786Z,22.3
2017-04-29T07:38:05.846Z,22.2
2017-04-29T07:40:05.575Z,22.2
2017-04-29T07:42:05.157Z,22.2
2017-04-29T07:44:05.273Z,22.3
2017-04-29T07:46:07.660Z,22.3
2017-04-29T07:48:05.450Z,22.3
2017-04-29T07:50:05.102Z,22.3
2017-04-29T07:52:04.933Z,22.3
2017-04-29T07:54:04.851Z,22.3
2017-04-29T07:56:05.905Z,22.4
2017-04-29T07:58:04.654Z,22.4
2017-04-29T08:00:05.394Z,22.4
2017-04-29T08:02:05.544Z,22.4
2017-04-29T08:04:05.251Z,22.4
2017-04-29T08:06:10.009Z,22.4
2017-04-29T08:08:05.403Z,22.3
2017-04-29T08:10:07.628Z,22.4
2017-04-29T08:12:04.833Z,22.4
2017-04-29T08:14:05.450Z,22.4
2017-04-29T08:16:05.324Z,22.4
2017-04-29T08:18:05.289Z,22.4
2017-04-29T08:20:05.242Z,22.4
2017-04-29T08:22:04.916Z,22.5
2017-04-29T08:24:04.994Z,22.5
2017-04-29T08:26:05.008Z,22.4
2017-04-29T08:28:04.800Z,22.5
2017-04-29T08:30:05.506Z,22.4
2017-04-29T08:32:05.566Z,22.4
2017-04-29T08:34:05.284Z,22.4
2017-04-29T08:36:05.066Z,22.4
2017-04-29T08:38:05.120Z,22.5
2017-04-29T08:40:07.666Z,22.3
2017-04-29T08:42:05.427Z,22.3
2017-04-29T08:44:05.519Z,22.4
2017-04-29T08:46:05.248Z,22.4
2017-04-29T08:48:04.940Z,22.5
2017-04-29T08:50:04.798Z,22.4
2017-04-29T08:52:05.049Z,22.4
2017-04-29T08:54:04.734Z,22.3
2017-04-29T08:56:08.329Z,22.3
2017-04-29T08:58:05.067Z,22.3
2017-04-29T09:00:04.868Z,22.2
2017-04-29T09:02:06.020Z,22.1
2017-04-29T09:04:05.260Z,22.1
2017-04-29T09:06:04.969Z,22.1
2017-04-29T09:08:04.914Z,22.1
2017-04-29T09:10:04.730Z,22
2017-04-29T09:12:05.597Z,22
2017-04-29T09:14:05.522Z,22
2017-04-29T09:16:07.789Z,21.9
2017-04-29T09:18:04.720Z,21.9
2017-04-29T09:20:05.745Z,22
2017-04-29T09:22:05.090Z,21.9
2017-04-29T09:24:04.780Z,22
2017-04-29T09:26:05.782Z,22
2017-04-29T09:28:10.893Z,22
2017-04-29T09:30:08.137Z,21.9
2017-04-29T09:32:07.734Z,21.9
2017-04-29T09:34:05.679Z,21.9
2017-04-29T09:36:10.550Z,21.8
2017-04-29T09:38:05.471Z,21.8
2017-04-29T09:40:12.778Z,21.7
2017-04-29T09:42:05.048Z,21.7
2017-04-29T09:44:07.652Z,21.7
2017-04-29T09:46:05.354Z,21.7
2017-04-29T09:48:05.619Z,21.6
2017-04-29T09:50:10.704Z,21.6
2017-04-29T09:52:10.559Z,21.6
2017-04-29T09:54:05.320Z,21.6
2017-04-29T09:56:07.851Z,21.5
2017-04-29T09:58:05.549Z,21.5
2017-04-29T10:00:10.632Z,21.5
2017-04-29T10:02:05.837Z,21.5
2017-04-29T10:04:04.671Z,21.5
2017-04-29T10:06:05.547Z,21.4
2017-04-29T10:08:05.342Z,21.4
2017-04-29T10:10:05.415Z,21.4
2017-04-29T10:12:05.131Z,21.4
2017-04-29T10:14:05.684Z,21.3
2017-04-29T10:16:05.793Z,21.3
2017-04-29T10:18:04.748Z,21.3
2017-04-29T10:20:05.879Z,21.4
2017-04-29T10:22:05.561Z,21.3
2017-04-29T10:24:12.836Z,21.4
2017-04-29T10:26:05.870Z,21.4
2017-04-29T10:28:05.133Z,21.3
2017-04-29T10:30:04.909Z,21.3
2017-04-29T10:32:04.801Z,21.3
2017-04-29T10:34:05.563Z,21.2
2017-04-29T10:36:05.321Z,21.2
2017-04-29T10:38:07.696Z,21.1
2017-04-29T10:40:05.389Z,21.1
2017-04-29T10:42:05.125Z,21.1
2017-04-29T10:44:05.200Z,21
2017-04-29T10:46:05.435Z,21.1
2017-04-29T10:48:05.560Z,21
2017-04-29T10:50:05.436Z,21
2017-04-29T10:52:05.098Z,21
2017-04-29T10:54:07.441Z,21.1
2017-04-29T10:56:05.439Z,21.1
2017-04-29T10:58:05.272Z,21.1
2017-04-29T11:00:05.162Z,21.1
2017-04-29T11:02:05.142Z,21.1
2017-04-29T11:04:08.235Z,21.1
2017-04-29T11:06:10.028Z,21.1
2017-04-29T11:08:05.671Z,21.1
2017-04-29T11:10:05.459Z,21.1
2017-04-29T11:12:05.261Z,21.1
2017-04-29T11:14:13.446Z,21
2017-04-29T11:16:05.243Z,21
2017-04-29T11:18:04.686Z,21.1
2017-04-29T11:20:08.257Z,21.1
2017-04-29T11:22:04.964Z,21.1
2017-04-29T11:24:09.712Z,21.1
2017-04-29T11:26:05.755Z,21.1
2017-04-29T11:28:05.539Z,21.1
2017-04-29T11:30:07.301Z,21
2017-04-29T11:32:05.412Z,21
2017-04-29T11:34:07.660Z,21
2017-04-29T11:36:05.465Z,21
2017-04-29T11:38:05.488Z,21
2017-04-29T11:40:05.279Z,21
2017-04-29T11:42:04.996Z,21
2017-04-29T11:44:04.810Z,21
2017-04-29T11:46:05.561Z,21
2017-04-29T11:48:07.813Z,20.9
2017-04-29T11:50:08.291Z,20.9
2017-04-29T11:52:05.323Z,20.9
2017-04-29T11:54:05.055Z,20.9
2017-04-29T11:56:05.131Z,20.9
2017-04-29T11:58:04.815Z,20.9
2017-04-29T12:00:08.145Z,20.9
2017-04-29T12:02:05.205Z,20.9
2017-04-29T12:04:07.951Z,20.8
2017-04-29T12:06:05.221Z,20.8
2017-04-29T12:08:05.174Z,20.8
2017-04-29T12:10:07.665Z,20.6
2017-04-29T12:12:04.995Z,20.6
2017-04-29T12:14:04.842Z,20.5
2017-04-29T12:16:05.642Z,20.6
2017-04-29T12:18:05.074Z,20.7
2017-04-29T12:20:05.696Z,20.7
2017-04-29T12:22:07.957Z,20.6
2017-04-29T12:24:05.276Z,20.6
2017-04-29T12:26:07.810Z,20.6
2017-04-29T12:28:05.539Z,20.6
2017-04-29T12:30:05.237Z,20.6
2017-04-29T12:32:05.194Z,20.6
2017-04-29T12:34:04.908Z,20.6
2017-04-29T12:36:07.140Z,20.6
2017-04-29T12:38:04.991Z,20.5
2017-04-29T12:40:04.840Z,20.6
2017-04-29T12:42:05.552Z,20.5
2017-04-29T12:44:05.347Z,20.5
2017-04-29T12:46:10.203Z,20.5
2017-04-29T12:48:04.926Z,20.5
2017-04-29T12:50:07.816Z,20.5
2017-04-29T12:52:05.592Z,20.5
2017-04-29T12:54:04.864Z,20.5
2017-04-29T12:56:05.021Z,20.5
2017-04-29T12:58:04.741Z,20.5
2017-04-29T13:00:10.502Z,20.4
2017-04-29T13:02:10.552Z,20.4
2017-04-29T13:04:05.233Z,20.4
2017-04-29T13:06:04.937Z,20.5
2017-04-29T13:08:07.565Z,20.5
2017-04-29T13:10:05.358Z,20.4
2017-04-29T13:12:05.387Z,20.4
2017-04-29T13:14:16.078Z,20.3
2017-04-29T13:16:04.782Z,20.3
2017-04-29T13:18:04.709Z,20.3
2017-04-29T13:20:05.771Z,20.3
2017-04-29T13:22:05.499Z,20.4
2017-04-29T13:24:05.232Z,20.3
2017-04-29T13:26:05.178Z,20.4
2017-04-29T13:28:10.821Z,20.4
2017-04-29T13:30:05.566Z,20.4
2017-04-29T13:32:05.627Z,20.4
2017-04-29T13:34:04.836Z,20.4
2017-04-29T13:36:05.501Z,20.4
2017-04-29T13:38:05.537Z,20.4
2017-04-29T13:40:07.776Z,20.4
2017-04-29T13:42:05.460Z,20.4
2017-04-29T13:44:05.005Z,20.5
2017-04-29T13:46:07.308Z,20.5
2017-04-29T13:48:04.627Z,20.5
2017-04-29T13:50:13.288Z,20.4
2017-04-29T13:52:05.190Z,20.4
2017-04-29T13:54:07.436Z,20.5
2017-04-29T13:56:05.606Z,20.4
2017-04-29T13:58:05.331Z,20.4
2017-04-29T14:00:05.319Z,20.4
2017-04-29T14:02:07.885Z,20.4
2017-04-29T14:04:08.154Z,20.4
2017-04-29T14:06:04.991Z,20.4
2017-04-29T14:08:05.519Z,20.4
2017-04-29T14:10:07.722Z,20.4
2017-04-29T14:12:05.391Z,20.4
2017-04-29T14:14:05.447Z,20.4
2017-04-29T14:16:05.393Z,20.4
2017-04-29T14:18:05.298Z,20.4
2017-04-29T14:20:07.842Z,20.2
2017-04-29T14:22:08.281Z,20.3
2017-04-29T14:24:07.535Z,20.3
2017-04-29T14:26:05.333Z,20.3
2017-04-29T14:28:05.103Z,20.3
2017-04-29T14:30:04.777Z,20.3
2017-04-29T14:32:07.517Z,20.3
2017-04-29T14:34:05.200Z,20.3
2017-04-29T14:36:07.424Z,20.4
2017-04-29T14:38:07.769Z,20.4
2017-04-29T14:40:08.050Z,20.4
2017-04-29T14:42:04.986Z,20.4
2017-04-29T14:44:04.980Z,20.4
2017-04-29T14:46:07.561Z,20.6
2017-04-29T14:48:05.593Z,20.6
2017-04-29T14:50:07.530Z,20.7
2017-04-29T14:52:05.296Z,20.7
2017-04-29T14:54:05.016Z,20.8
2017-04-29T14:56:04.867Z,20.8
2017-04-29T14:58:05.056Z,20.9
2017-04-29T15:00:04.771Z,20.9
2017-04-29T15:02:05.741Z,20.9
2017-04-29T15:04:05.740Z,20.9
2017-04-29T15:06:05.457Z,21
2017-04-29T15:08:05.384Z,21
2017-04-29T15:10:05.616Z,21.1
2017-04-29T15:12:05.393Z,21.1
2017-04-29T15:14:05.203Z,21.1
2017-04-29T15:16:05.093Z,21.2
2017-04-29T15:18:05.075Z,21.2
2017-04-29T15:20:05.168Z,21.2
2017-04-29T15:22:12.500Z,21.3
2017-04-29T15:24:07.809Z,21.3
2017-04-29T15:26:08.205Z,21.3
2017-04-29T15:28:05.064Z,21.4
2017-04-29T15:30:07.453Z,21.4
2017-04-29T15:32:08.045Z,21.4
2017-04-29T15:34:05.282Z,21.4
2017-04-29T15:36:05.277Z,21.4
2017-04-29T15:38:06.088Z,21.5
2017-04-29T15:40:05.550Z,21.5
2017-04-29T15:42:05.385Z,21.5
2017-04-29T15:44:05.711Z,21.5
2017-04-29T15:46:05.430Z,21.5
2017-04-29T15:48:05.186Z,21.6
2017-04-29T15:50:05.034Z,21.6
2017-04-29T15:52:04.871Z,21.6
2017-04-29T15:54:05.151Z,21.6
2017-04-29T15:56:05.152Z,21.6
2017-04-29T15:58:04.871Z,21.6
2017-04-29T16:00:05.570Z,21.6
2017-04-29T16:02:05.159Z,21.7
2017-04-29T16:04:04.859Z,21.7
2017-04-29T16:06:05.592Z,21.7
2017-04-29T16:08:08.168Z,21.7
2017-04-29T16:10:04.890Z,21.7
2017-04-29T16:12:04.721Z,21.8
2017-04-29T16:14:05.662Z,21.8
2017-04-29T16:16:05.562Z,21.8
2017-04-29T16:18:04.630Z,21.8
2017-04-29T16:20:05.553Z,21.8
2017-04-29T16:22:05.289Z,21.8
2017-04-29T16:24:05.361Z,21.8
2017-04-29T16:26:05.510Z,21.9
2017-04-29T16:28:05.220Z,21.8
2017-04-29T16:30:05.004Z,21.9
2017-04-29T16:32:04.959Z,21.9
2017-04-29T16:34:04.622Z,21.9
2017-04-29T16:36:04.872Z,21.9
2017-04-29T16:38:05.942Z,21.9
2017-04-29T16:40:05.027Z,21.9
2017-04-29T16:42:04.685Z,21.9
2017-04-29T16:44:05.646Z,21.9
2017-04-29T16:46:05.366Z,21.9
2017-04-29T16:48:05.104Z,21.9
2017-04-29T16:50:05.869Z,21.9
2017-04-29T16:52:05.064Z,21.9
2017-04-29T16:54:04.849Z,21.9
2017-04-29T16:56:05.930Z,21.9
2017-04-29T16:58:05.175Z,21.9
2017-04-29T17:00:05.376Z,21.9
2017-04-29T17:02:05.202Z,21.9
2017-04-29T17:04:07.436Z,21.9
2017-04-29T17:06:05.142Z,21.9
2017-04-29T17:08:08.399Z,21.9
2017-04-29T17:10:07.687Z,21.9
2017-04-29T17:12:05.627Z,21.9
2017-04-29T17:14:05.589Z,21.9
2017-04-29T17:16:05.350Z,21.9
2017-04-29T17:18:07.404Z,21.9
2017-04-29T17:20:05.479Z,21.9
2017-04-29T17:22:04.693Z,21.9
2017-04-29T17:24:05.441Z,21.9
2017-04-29T17:26:07.540Z,21.9
2017-04-29T17:28:08.141Z,21.9
2017-04-29T17:30:04.808Z,21.9
2017-04-29T17:32:05.772Z,22
2017-04-29T17:34:05.496Z,21.9
2017-04-29T17:36:05.246Z,22
2017-04-29T17:38:07.877Z,22
2017-04-29T17:40:08.093Z,22
2017-04-29T17:42:04.777Z,22
2017-04-29T17:44:05.701Z,22
2017-04-29T17:46:10.444Z,22
2017-04-29T17:48:05.132Z,22
2017-04-29T17:50:05.927Z,22
2017-04-29T17:52:04.712Z,22
2017-04-29T17:54:05.437Z,22
2017-04-29T17:56:07.882Z,22
2017-04-29T17:58:04.701Z,22
2017-04-29T18:00:05.587Z,22
2017-04-29T18:02:05.604Z,22
2017-04-29T18:04:05.366Z,22
2017-04-29T18:06:07.681Z,22
2017-04-29T18:08:05.598Z,21.9
2017-04-29T18:10:05.333Z,22
2017-04-29T18:12:05.037Z,22
2017-04-29T18:14:07.629Z,22
2017-04-29T18:16:08.156Z,22
2017-04-29T18:18:05.091Z,21.9
2017-04-29T18:20:04.972Z,21.9
2017-04-29T18:22:07.243Z,21.9
2017-04-29T18:24:04.999Z,21.9
2017-04-29T18:26:05.044Z,21.9
2017-04-29T18:28:05.266Z,21.9
2017-04-29T18:30:05.028Z,21.9
2017-04-29T18:32:05.011Z,21.9
2017-04-29T18:34:04.767Z,21.9
2017-04-29T18:36:08.049Z,21.9
2017-04-29T18:38:04.919Z,21.9
2017-04-29T18:40:05.600Z,21.9
2017-04-29T18:42:05.428Z,21.9
2017-04-29T18:44:12.952Z,21.9
2017-04-29T18:46:05.405Z,21.9
2017-04-29T18:48:05.457Z,21.9
2017-04-29T18:50:05.238Z,21.9
2017-04-29T18:52:05.620Z,21.9
2017-04-29T18:54:07.870Z,21.9
2017-04-29T18:56:05.903Z,21.9
2017-04-29T18:58:05.599Z,21.9
2017-04-29T19:00:07.855Z,21.9
2017-04-29T19:02:05.706Z,21.9
2017-04-29T19:04:05.129Z,21.9
2017-04-29T19:06:07.393Z,21.9
2017-04-29T19:08:05.355Z,21.9
2017-04-29T19:10:07.630Z,21.9
2017-04-29T19:12:15.534Z,21.9
2017-04-29T19:14:15.619Z,21.9
2017-04-29T19:16:05.025Z,21.9
2017-04-29T19:18:04.954Z,21.9
2017-04-29T19:20:07.275Z,21.9
2017-04-29T19:22:05.050Z,21.9
2017-04-29T19:24:04.804Z,21.9
2017-04-29T19:26:05.822Z,21.9
2017-04-29T19:28:07.986Z,21.9
2017-04-29T19:30:04.707Z,21.8
2017-04-29T19:32:05.110Z,21.8
2017-04-29T19:34:04.896Z,21.8
2017-04-29T19:36:05.793Z,21.9
2017-04-29T19:38:05.851Z,21.9
2017-04-29T19:40:08.090Z,21.9
2017-04-29T19:42:04.832Z,21.8
2017-04-29T19:44:05.829Z,21.9
2017-04-29T19:46:08.160Z,21.9
2017-04-29T19:48:07.951Z,21.9
2017-04-29T19:50:04.845Z,21.9
2017-04-29T19:52:04.869Z,21.9
2017-04-29T19:54:05.271Z,21.9
2017-04-29T19:56:05.340Z,21.9
2017-04-29T19:58:05.470Z,21.9
2017-04-29T20:00:05.138Z,21.9
2017-04-29T20:02:10.342Z,21.9
2017-04-29T20:04:05.111Z,21.9
2017-04-29T20:06:07.593Z,21.9
2017-04-29T20:08:05.318Z,21.9
2017-04-29T20:10:05.313Z,21.9
2017-04-29T20:12:05.153Z,21.9
2017-04-29T20:14:05.437Z,21.9
2017-04-29T20:16:05.319Z,21.9
2017-04-29T20:18:04.946Z,21.9
2017-04-29T20:20:07.764Z,21.9
2017-04-29T20:22:05.018Z,21.9
2017-04-29T20:24:05.023Z,21.9
2017-04-29T20:26:08.043Z,22
2017-04-29T20:28:06.265Z,22
2017-04-29T20:30:07.534Z,22
2017-04-29T20:32:05.808Z,21.9
2017-04-29T20:34:08.122Z,21.9
2017-04-29T20:36:05.609Z,21.9
2017-04-29T20:38:05.749Z,21.9
2017-04-29T20:40:06.112Z,21.9
2017-04-29T20:42:05.085Z,21.9
2017-04-29T20:44:05.445Z,21.9
2017-04-29T20:46:05.174Z,21.9
2017-04-29T20:48:08.594Z,21.9
2017-04-29T20:50:04.931Z,21.9
2017-04-29T20:52:05.089Z,21.9
2017-04-29T20:54:04.703Z,21.9
2017-04-29T20:56:05.847Z,21.9
2017-04-29T20:58:05.822Z,21.9
2017-04-29T21:00:05.518Z,21.9
2017-04-29T21:02:10.729Z,21.9
2017-04-29T21:04:05.440Z,21.9
2017-04-29T21:06:05.264Z,21.9
2017-04-29T21:08:05.326Z,21.9
2017-04-29T21:10:06.039Z,21.9
2017-04-29T21:12:04.938Z,21.9
2017-04-29T21:14:07.298Z,21.9
2017-04-29T21:16:06.112Z,21.9
2017-04-29T21:18:06.226Z,21.9
2017-04-29T21:20:12.879Z,21.9
2017-04-29T21:22:05.770Z,21.9
2017-04-29T21:24:05.596Z,21.9
2017-04-29T21:26:05.412Z,21.9
2017-04-29T21:28:05.491Z,21.9
2017-04-29T21:30:05.385Z,21.9
2017-04-29T21:32:05.906Z,21.9
2017-04-29T21:34:05.146Z,21.9
2017-04-29T21:36:07.262Z,21.9
2017-04-29T21:38:05.234Z,21.9
2017-04-29T21:40:05.540Z,21.9
2017-04-29T21:42:05.233Z,21.9
2017-04-29T21:44:07.871Z,21.9
2017-04-29T21:46:05.589Z,21.9
2017-04-29T21:48:05.318Z,21.9
2017-04-29T21:50:05.154Z,21.9
2017-04-29T21:52:05.483Z,21.9
2017-04-29T21:54:05.189Z,21.9
2017-04-29T21:56:04.750Z,21.9
2017-04-29T21:58:05.485Z,21.9
2017-04-29T22:00:04.874Z,21.9
2017-04-29T22:02:05.753Z,21.9
2017-04-29T22:04:05.476Z,21.9
2017-04-29T22:06:05.477Z,21.9
2017-04-29T22:08:08.022Z,21.9
2017-04-29T22:10:09.823Z,21.9
2017-04-29T22:12:05.848Z,21.9
2017-04-29T22:14:07.883Z,21.9
2017-04-29T22:16:05.470Z,21.9
2017-04-29T22:18:05.476Z,21.9
2017-04-29T22:20:05.495Z,21.9
2017-04-29T22:22:04.694Z,21.9
2017-04-29T22:24:05.410Z,21.9
2017-04-29T22:26:05.434Z,21.9
2017-04-29T22:28:05.147Z,21.9
2017-04-29T22:30:04.873Z,21.9
2017-04-29T22:32:05.485Z,21.9
2017-04-29T22:34:05.184Z,21.9
2017-04-29T22:36:04.874Z,21.9
2017-04-29T22:38:07.993Z,21.9
2017-04-29T22:40:05.273Z,21.9
2017-04-29T22:42:05.576Z,21.9
2017-04-29T22:44:07.669Z,21.9
2017-04-29T22:46:07.528Z,21.9
2017-04-29T22:48:05.345Z,21.9
2017-04-29T22:50:05.252Z,21.9
2017-04-29T22:52:07.744Z,21.9
2017-04-29T22:54:04.967Z,21.9
2017-04-29T22:56:04.912Z,21.9
2017-04-29T22:58:04.628Z,21.9
2017-04-29T23:00:07.975Z,21.9
2017-04-29T23:02:05.588Z,21.9
2017-04-29T23:04:08.035Z,22
2017-04-29T23:06:04.744Z,21.9
2017-04-29T23:08:05.630Z,21.9
2017-04-29T23:10:05.388Z,21.9
2017-04-29T23:12:05.182Z,21.9
2017-04-29T23:14:10.281Z,21.9
2017-04-29T23:16:04.990Z,21.9
2017-04-29T23:18:07.430Z,21.9
2017-04-29T23:20:04.972Z,21.9
2017-04-29T23:22:07.382Z,21.9
2017-04-29T23:24:05.111Z,21.9
2017-04-29T23:26:04.929Z,21.9
2017-04-29T23:28:04.693Z,21.9
2017-04-29T23:30:07.915Z,21.9
2017-04-29T23:32:05.757Z,21.9
2017-04-29T23:34:05.474Z,22
2017-04-29T23:36:04.928Z,21.9
2017-04-29T23:38:04.726Z,21.9
2017-04-29T23:40:05.409Z,21.9
2017-04-29T23:42:10.157Z,21.9
2017-04-29T23:44:05.089Z,21.9
2017-04-29T23:46:04.812Z,21.9
2017-04-29T23:48:05.538Z,21.9
2017-04-29T23:50:05.063Z,22
2017-04-29T23:52:05.139Z,21.9
2017-04-29T23:54:09.891Z,21.9
2017-04-29T23:56:04.823Z,21.9
2017-04-29T23:58:04.818Z,21.9
